createdAt,value
2019-02-27T00:00:11.991Z,1018.55
2019-02-27T00:01:11.908Z,1018.55
2019-02-27T00:02:11.892Z,1018.63
2019-02-27T00:03:11.886Z,1018.57
2019-02-27T00:04:11.862Z,1018.62
2019-02-27T00:05:11.883Z,1018.56
2019-02-27T00:06:12.889Z,1018.62
2019-02-27T00:07:11.833Z,1018.59
2019-02-27T00:08:11.834Z,1018.65
2019-02-27T00:09:11.811Z,1018.59
2019-02-27T00:10:11.824Z,1018.55
2019-02-27T00:11:12.332Z,1018.59
2019-02-27T00:12:11.788Z,1018.56
2019-02-27T00:13:11.767Z,1018.53
2019-02-27T00:14:11.766Z,1018.58
2019-02-27T00:15:11.745Z,1018.56
2019-02-27T00:16:11.759Z,1018.55
2019-02-27T00:17:11.731Z,1018.63
2019-02-27T00:18:11.719Z,1018.59
2019-02-27T00:19:11.698Z,1018.59
2019-02-27T00:20:11.688Z,1018.62
2019-02-27T00:21:11.734Z,1018.60
2019-02-27T00:22:11.677Z,1018.62
2019-02-27T00:23:11.683Z,1018.58
2019-02-27T00:24:11.678Z,1018.57
2019-02-27T00:25:11.646Z,1018.53
2019-02-27T00:26:11.631Z,1018.52
2019-02-27T00:27:14.583Z,1018.52
2019-02-27T00:28:11.607Z,1018.53
2019-02-27T00:29:11.611Z,1018.47
2019-02-27T00:30:11.599Z,1018.50
2019-02-27T00:31:12.075Z,1018.50
2019-02-27T00:32:11.637Z,1018.45
2019-02-27T00:33:11.554Z,1018.46
2019-02-27T00:34:11.556Z,1018.45
2019-02-27T00:35:11.547Z,1018.51
2019-02-27T00:36:12.236Z,1018.57
2019-02-27T00:37:11.522Z,1018.53
2019-02-27T00:38:11.495Z,1018.53
2019-02-27T00:39:11.485Z,1018.49
2019-02-27T00:40:11.505Z,1018.56
2019-02-27T00:41:12.827Z,1018.57
2019-02-27T00:42:11.453Z,1018.52
2019-02-27T00:43:11.443Z,1018.57
2019-02-27T00:44:11.440Z,1018.60
2019-02-27T00:45:11.418Z,1018.61
2019-02-27T00:46:13.337Z,1018.57
2019-02-27T00:47:11.405Z,1018.57
2019-02-27T00:48:11.384Z,1018.54
2019-02-27T00:49:11.375Z,1018.61
2019-02-27T00:50:11.381Z,1018.56
2019-02-27T00:51:11.955Z,1018.57
2019-02-27T00:52:11.352Z,1018.53
2019-02-27T00:53:11.347Z,1018.51
2019-02-27T00:54:11.328Z,1018.54
2019-02-27T00:55:11.311Z,1018.55
2019-02-27T00:56:12.166Z,1018.49
2019-02-27T00:57:11.292Z,1018.53
2019-02-27T00:58:11.284Z,1018.46
2019-02-27T00:59:11.296Z,1018.49
2019-02-27T01:00:11.280Z,1018.51
2019-02-27T01:01:12.798Z,1018.45
2019-02-27T01:02:11.257Z,1018.38
2019-02-27T01:03:11.222Z,1018.42
2019-02-27T01:04:11.218Z,1018.38
2019-02-27T01:05:11.207Z,1018.37
2019-02-27T01:06:12.257Z,1018.47
2019-02-27T01:07:11.192Z,1018.45
2019-02-27T01:08:11.166Z,1018.42
2019-02-27T01:09:11.153Z,1018.45
2019-02-27T01:10:12.286Z,1018.40
2019-02-27T01:11:11.131Z,1018.36
2019-02-27T01:12:11.153Z,1018.31
2019-02-27T01:13:11.110Z,1018.35
2019-02-27T01:14:11.105Z,1018.38
2019-02-27T01:15:11.313Z,1018.29
2019-02-27T01:16:11.078Z,1018.30
2019-02-27T01:17:11.109Z,1018.26
2019-02-27T01:18:11.061Z,1018.29
2019-02-27T01:19:11.050Z,1018.27
2019-02-27T01:20:11.937Z,1018.22
2019-02-27T01:21:11.062Z,1018.21
2019-02-27T01:22:11.037Z,1018.21
2019-02-27T01:23:11.613Z,1018.18
2019-02-27T01:24:11.004Z,1018.17
2019-02-27T01:25:10.986Z,1018.18
2019-02-27T01:26:10.973Z,1018.14
2019-02-27T01:27:10.957Z,1018.15
2019-02-27T01:28:11.649Z,1018.10
2019-02-27T01:29:10.971Z,1018.12
2019-02-27T01:30:10.923Z,1018.17
2019-02-27T01:31:10.914Z,1018.13
2019-02-27T01:32:10.908Z,1018.10
2019-02-27T01:33:10.925Z,1018.11
2019-02-27T01:34:11.330Z,1018.16
2019-02-27T01:35:10.886Z,1018.19
2019-02-27T01:36:10.863Z,1018.12
2019-02-27T01:37:10.846Z,1018.17
2019-02-27T01:38:10.851Z,1018.12
2019-02-27T01:39:11.376Z,1018.07
2019-02-27T01:40:10.814Z,1018.06
2019-02-27T01:41:10.811Z,1018.02
2019-02-27T01:42:10.794Z,1017.99
2019-02-27T01:43:10.809Z,1017.97
2019-02-27T01:44:11.200Z,1017.93
2019-02-27T01:45:10.761Z,1017.94
2019-02-27T01:46:10.754Z,1017.94
2019-02-27T01:47:10.741Z,1017.92
2019-02-27T01:48:10.729Z,1017.98
2019-02-27T01:49:10.768Z,1017.88
2019-02-27T01:50:10.713Z,1017.92
2019-02-27T01:51:10.693Z,1017.85
2019-02-27T01:52:11.136Z,1017.82
2019-02-27T01:53:10.672Z,1017.81
2019-02-27T01:54:12.233Z,1017.81
2019-02-27T01:55:10.679Z,1017.80
2019-02-27T01:56:10.655Z,1017.77
2019-02-27T01:57:10.647Z,1017.72
2019-02-27T01:58:10.622Z,1017.73
2019-02-27T01:59:10.612Z,1017.72
2019-02-27T02:00:10.611Z,1017.70
2019-02-27T02:01:10.589Z,1017.74
2019-02-27T02:02:10.573Z,1017.65
2019-02-27T02:03:11.243Z,1017.64
2019-02-27T02:04:10.550Z,1017.65
2019-02-27T02:05:10.574Z,1017.64
2019-02-27T02:06:10.530Z,1017.60
2019-02-27T02:07:10.527Z,1017.65
2019-02-27T02:08:13.612Z,1017.64
2019-02-27T02:09:10.496Z,1017.56
2019-02-27T02:10:10.488Z,1017.61
2019-02-27T02:11:10.506Z,1017.49
2019-02-27T02:12:10.462Z,1017.57
2019-02-27T02:13:14.937Z,1017.49
2019-02-27T02:14:10.448Z,1017.50
2019-02-27T02:15:10.428Z,1017.57
2019-02-27T02:16:10.448Z,1017.53
2019-02-27T02:17:10.414Z,1017.49
2019-02-27T02:18:11.890Z,1017.51
2019-02-27T02:19:10.388Z,1017.55
2019-02-27T02:20:10.385Z,1017.46
2019-02-27T02:21:10.403Z,1017.47
2019-02-27T02:22:10.350Z,1017.52
2019-02-27T02:23:13.968Z,1017.44
2019-02-27T02:24:10.330Z,1017.43
2019-02-27T02:25:10.335Z,1017.44
2019-02-27T02:26:10.325Z,1017.47
2019-02-27T02:27:10.326Z,1017.44
2019-02-27T02:28:12.071Z,1017.43
2019-02-27T02:29:10.277Z,1017.42
2019-02-27T02:30:10.267Z,1017.44
2019-02-27T02:31:10.258Z,1017.39
2019-02-27T02:32:10.267Z,1017.50
2019-02-27T02:33:10.240Z,1017.41
2019-02-27T02:34:10.230Z,1017.43
2019-02-27T02:35:14.631Z,1017.38
2019-02-27T02:36:11.208Z,1017.39
2019-02-27T02:37:10.210Z,1017.45
2019-02-27T02:38:12.566Z,1017.42
2019-02-27T02:39:10.176Z,1017.43
2019-02-27T02:40:10.160Z,1017.40
2019-02-27T02:41:10.144Z,1017.45
2019-02-27T02:42:10.205Z,1017.49
2019-02-27T02:43:10.133Z,1017.47
2019-02-27T02:44:10.110Z,1017.54
2019-02-27T02:45:10.098Z,1017.49
2019-02-27T02:46:10.087Z,1017.51
2019-02-27T02:47:10.078Z,1017.54
2019-02-27T02:48:10.088Z,1017.49
2019-02-27T02:49:10.056Z,1017.49
2019-02-27T02:50:10.051Z,1017.51
2019-02-27T02:51:10.035Z,1017.44
2019-02-27T02:52:10.041Z,1017.53
2019-02-27T02:53:10.048Z,1017.47
2019-02-27T02:54:10.014Z,1017.51
2019-02-27T02:55:12.518Z,1017.46
2019-02-27T02:56:09.983Z,1017.47
2019-02-27T02:57:09.971Z,1017.53
2019-02-27T02:58:11.382Z,1017.49
2019-02-27T02:59:09.977Z,1017.49
2019-02-27T03:00:09.944Z,1017.49
2019-02-27T03:01:14.047Z,1017.46
2019-02-27T03:02:10.915Z,1017.49
2019-02-27T03:03:09.901Z,1017.56
2019-02-27T03:04:12.818Z,1017.57
2019-02-27T03:05:09.883Z,1017.53
2019-02-27T03:06:09.875Z,1017.59
2019-02-27T03:07:10.944Z,1017.58
2019-02-27T03:08:09.846Z,1017.53
2019-02-27T03:09:09.839Z,1017.53
2019-02-27T03:10:09.861Z,1017.47
2019-02-27T03:11:09.818Z,1017.47
2019-02-27T03:12:09.812Z,1017.47
2019-02-27T03:13:09.798Z,1017.49
2019-02-27T03:14:09.783Z,1017.46
2019-02-27T03:15:09.801Z,1017.46
2019-02-27T03:16:09.760Z,1017.52
2019-02-27T03:17:09.753Z,1017.41
2019-02-27T03:18:09.764Z,1017.47
2019-02-27T03:19:09.759Z,1017.42
2019-02-27T03:20:09.716Z,1017.39
2019-02-27T03:21:09.740Z,1017.39
2019-02-27T03:22:09.695Z,1017.43
2019-02-27T03:23:15.349Z,1017.34
2019-02-27T03:24:10.694Z,1017.38
2019-02-27T03:25:09.661Z,1017.40
2019-02-27T03:26:09.682Z,1017.47
2019-02-27T03:27:09.634Z,1017.40
2019-02-27T03:28:09.631Z,1017.39
2019-02-27T03:29:15.506Z,1017.45
2019-02-27T03:30:10.644Z,1017.48
2019-02-27T03:31:16.277Z,1017.45
2019-02-27T03:32:10.615Z,1017.51
2019-02-27T03:33:09.576Z,1017.46
2019-02-27T03:34:09.615Z,1017.41
2019-02-27T03:35:09.574Z,1017.48
2019-02-27T03:36:09.549Z,1017.40
2019-02-27T03:37:13.167Z,1017.49
2019-02-27T03:38:09.524Z,1017.38
2019-02-27T03:39:09.506Z,1017.35
2019-02-27T03:40:11.757Z,1017.40
2019-02-27T03:41:09.515Z,1017.40
2019-02-27T03:42:09.507Z,1017.42
2019-02-27T03:43:10.451Z,1017.37
2019-02-27T03:44:09.469Z,1017.39
2019-02-27T03:45:09.457Z,1017.33
2019-02-27T03:46:09.473Z,1017.34
2019-02-27T03:47:15.619Z,1017.30
2019-02-27T03:48:10.399Z,1017.23
2019-02-27T03:49:09.397Z,1017.32
2019-02-27T03:50:14.632Z,1017.29
2019-02-27T03:51:10.378Z,1017.27
2019-02-27T03:52:09.386Z,1017.29
2019-02-27T03:53:11.236Z,1017.34
2019-02-27T03:54:09.333Z,1017.36
2019-02-27T03:55:09.323Z,1017.33
2019-02-27T03:56:10.008Z,1017.36
2019-02-27T03:57:09.306Z,1017.31
2019-02-27T03:58:09.311Z,1017.31
2019-02-27T03:59:09.282Z,1017.31
2019-02-27T04:00:09.321Z,1017.31
2019-02-27T04:01:09.266Z,1017.20
2019-02-27T04:02:09.255Z,1017.21
2019-02-27T04:03:09.263Z,1017.19
2019-02-27T04:04:09.234Z,1017.18
2019-02-27T04:05:09.221Z,1017.16
2019-02-27T04:06:09.215Z,1017.16
2019-02-27T04:07:09.198Z,1017.17
2019-02-27T04:08:09.229Z,1017.17
2019-02-27T04:09:09.182Z,1017.14
2019-02-27T04:10:09.167Z,1017.22
2019-02-27T04:11:09.151Z,1017.18
2019-02-27T04:12:09.166Z,1017.18
2019-02-27T04:13:09.199Z,1017.17
2019-02-27T04:14:09.141Z,1017.14
2019-02-27T04:15:09.116Z,1017.17
2019-02-27T04:16:09.102Z,1017.17
2019-02-27T04:17:09.088Z,1017.16
2019-02-27T04:18:09.093Z,1017.26
2019-02-27T04:19:09.084Z,1017.24
2019-02-27T04:20:14.652Z,1017.20
2019-02-27T04:21:10.042Z,1017.21
2019-02-27T04:22:09.042Z,1017.29
2019-02-27T04:23:12.471Z,1017.22
2019-02-27T04:24:09.033Z,1017.25
2019-02-27T04:25:08.996Z,1017.27
2019-02-27T04:26:08.986Z,1017.24
2019-02-27T04:27:08.976Z,1017.25
2019-02-27T04:28:08.966Z,1017.29
2019-02-27T04:29:08.979Z,1017.26
2019-02-27T04:30:09.005Z,1017.23
2019-02-27T04:31:08.932Z,1017.23
2019-02-27T04:32:09.516Z,1017.28
2019-02-27T04:33:08.941Z,1017.23
2019-02-27T04:34:08.897Z,1017.22
2019-02-27T04:35:08.901Z,1017.24
2019-02-27T04:36:12.441Z,1017.20
2019-02-27T04:37:08.861Z,1017.22
2019-02-27T04:38:08.865Z,1017.16
2019-02-27T04:39:08.844Z,1017.20
2019-02-27T04:40:10.828Z,1017.16
2019-02-27T04:41:08.820Z,1017.18
2019-02-27T04:42:08.836Z,1017.18
2019-02-27T04:43:08.802Z,1017.19
2019-02-27T04:44:08.788Z,1017.16
2019-02-27T04:45:09.843Z,1017.12
2019-02-27T04:46:08.793Z,1017.22
2019-02-27T04:47:08.761Z,1017.21
2019-02-27T04:48:08.744Z,1017.27
2019-02-27T04:49:08.735Z,1017.21
2019-02-27T04:50:10.853Z,1017.20
2019-02-27T04:51:08.740Z,1017.17
2019-02-27T04:52:08.707Z,1017.17
2019-02-27T04:53:08.691Z,1017.14
2019-02-27T04:54:08.680Z,1017.16
2019-02-27T04:55:08.700Z,1017.11
2019-02-27T04:56:08.709Z,1017.10
2019-02-27T04:57:08.658Z,1017.07
2019-02-27T04:58:09.543Z,1017.09
2019-02-27T04:59:08.624Z,1017.09
2019-02-27T05:00:08.614Z,1017.06
2019-02-27T05:01:08.606Z,1017.08
2019-02-27T05:02:08.619Z,1017.08
2019-02-27T05:03:08.581Z,1017.10
2019-02-27T05:04:08.573Z,1017.13
2019-02-27T05:05:09.161Z,1017.05
2019-02-27T05:06:08.555Z,1017.11
2019-02-27T05:07:08.565Z,1017.05
2019-02-27T05:08:08.531Z,1017.07
2019-02-27T05:09:08.525Z,1017.09
2019-02-27T05:10:08.506Z,1017.09
2019-02-27T05:11:08.497Z,1017.06
2019-02-27T05:12:08.515Z,1017.06
2019-02-27T05:13:08.479Z,1017.03
2019-02-27T05:14:08.475Z,1017.08
2019-02-27T05:15:08.449Z,1017.01
2019-02-27T05:16:08.439Z,1017.07
2019-02-27T05:17:08.455Z,1017.05
2019-02-27T05:18:08.416Z,1017.04
2019-02-27T05:19:08.411Z,1017.01
2019-02-27T05:20:11.672Z,1017.00
2019-02-27T05:21:08.386Z,1016.96
2019-02-27T05:22:08.375Z,1017.01
2019-02-27T05:23:08.380Z,1017.04
2019-02-27T05:24:08.661Z,1017.01
2019-02-27T05:25:08.349Z,1017.01
2019-02-27T05:26:08.355Z,1016.97
2019-02-27T05:27:08.340Z,1017.06
2019-02-27T05:28:08.324Z,1017.00
2019-02-27T05:29:08.301Z,1017.02
2019-02-27T05:30:12.057Z,1016.94
2019-02-27T05:31:08.286Z,1016.92
2019-02-27T05:32:08.268Z,1016.89
2019-02-27T05:33:08.289Z,1016.89
2019-02-27T05:34:12.722Z,1016.90
2019-02-27T05:35:09.241Z,1016.86
2019-02-27T05:36:08.223Z,1016.87
2019-02-27T05:37:08.216Z,1016.82
2019-02-27T05:38:08.200Z,1016.82
2019-02-27T05:39:08.214Z,1016.81
2019-02-27T05:40:08.184Z,1016.79
2019-02-27T05:41:08.168Z,1016.82
2019-02-27T05:42:08.167Z,1016.80
2019-02-27T05:43:08.142Z,1016.77
2019-02-27T05:44:08.154Z,1016.81
2019-02-27T05:45:08.121Z,1016.79
2019-02-27T05:46:08.112Z,1016.73
2019-02-27T05:47:08.631Z,1016.71
2019-02-27T05:48:08.101Z,1016.73
2019-02-27T05:49:08.125Z,1016.75
2019-02-27T05:50:08.078Z,1016.73
2019-02-27T05:51:08.537Z,1016.76
2019-02-27T05:52:08.052Z,1016.69
2019-02-27T05:53:08.040Z,1016.70
2019-02-27T05:54:08.050Z,1016.73
2019-02-27T05:55:08.050Z,1016.78
2019-02-27T05:56:08.008Z,1016.69
2019-02-27T05:57:07.996Z,1016.78
2019-02-27T05:58:07.983Z,1016.72
2019-02-27T05:59:08.007Z,1016.71
2019-02-27T06:00:07.985Z,1016.71
2019-02-27T06:01:07.955Z,1016.66
2019-02-27T06:02:10.563Z,1016.72
2019-02-27T06:03:07.954Z,1016.73
2019-02-27T06:04:07.925Z,1016.71
2019-02-27T06:05:07.959Z,1016.69
2019-02-27T06:06:11.504Z,1016.72
2019-02-27T06:07:07.886Z,1016.64
2019-02-27T06:08:07.875Z,1016.73
2019-02-27T06:09:09.993Z,1016.67
2019-02-27T06:10:07.885Z,1016.70
2019-02-27T06:11:07.856Z,1016.67
2019-02-27T06:12:09.311Z,1016.66
2019-02-27T06:13:07.818Z,1016.73
2019-02-27T06:14:07.812Z,1016.65
2019-02-27T06:15:07.809Z,1016.72
2019-02-27T06:16:09.213Z,1016.65
2019-02-27T06:17:10.178Z,1016.66
2019-02-27T06:18:07.778Z,1016.68
2019-02-27T06:19:07.754Z,1016.62
2019-02-27T06:20:08.497Z,1016.63
2019-02-27T06:21:07.730Z,1016.63
2019-02-27T06:22:07.762Z,1016.70
2019-02-27T06:23:07.715Z,1016.67
2019-02-27T06:24:11.601Z,1016.60
2019-02-27T06:25:07.714Z,1016.59
2019-02-27T06:26:07.691Z,1016.60
2019-02-27T06:27:07.669Z,1016.68
2019-02-27T06:28:07.678Z,1016.63
2019-02-27T06:29:07.643Z,1016.60
2019-02-27T06:30:07.640Z,1016.61
2019-02-27T06:31:07.621Z,1016.61
2019-02-27T06:32:12.017Z,1016.60
2019-02-27T06:33:11.573Z,1016.59
2019-02-27T06:34:07.594Z,1016.65
2019-02-27T06:35:07.580Z,1016.57
2019-02-27T06:36:08.475Z,1016.59
2019-02-27T06:37:07.561Z,1016.58
2019-02-27T06:38:07.589Z,1016.53
2019-02-27T06:39:08.732Z,1016.55
2019-02-27T06:40:08.076Z,1016.56
2019-02-27T06:41:07.515Z,1016.59
2019-02-27T06:42:07.585Z,1016.57
2019-02-27T06:43:07.492Z,1016.54
2019-02-27T06:44:07.502Z,1016.51
2019-02-27T06:45:07.473Z,1016.60
2019-02-27T06:46:07.464Z,1016.58
2019-02-27T06:47:07.463Z,1016.59
2019-02-27T06:48:10.272Z,1016.59
2019-02-27T06:49:07.483Z,1016.62
2019-02-27T06:50:07.424Z,1016.54
2019-02-27T06:51:07.422Z,1016.60
2019-02-27T06:52:09.198Z,1016.58
2019-02-27T06:53:07.415Z,1016.52
2019-02-27T06:54:07.429Z,1016.53
2019-02-27T06:55:07.364Z,1016.53
2019-02-27T06:56:07.358Z,1016.56
2019-02-27T06:57:07.798Z,1016.56
2019-02-27T06:58:07.342Z,1016.56
2019-02-27T06:59:07.334Z,1016.55
2019-02-27T07:00:07.333Z,1016.57
2019-02-27T07:01:09.805Z,1016.61
2019-02-27T07:02:08.290Z,1016.57
2019-02-27T07:03:07.286Z,1016.57
2019-02-27T07:04:08.230Z,1016.55
2019-02-27T07:05:07.279Z,1016.55
2019-02-27T07:06:07.246Z,1016.53
2019-02-27T07:07:07.240Z,1016.60
2019-02-27T07:08:07.235Z,1016.59
2019-02-27T07:09:11.379Z,1016.55
2019-02-27T07:10:07.251Z,1016.62
2019-02-27T07:11:10.942Z,1016.58
2019-02-27T07:12:07.379Z,1016.64
2019-02-27T07:13:07.172Z,1016.65
2019-02-27T07:14:07.171Z,1016.64
2019-02-27T07:15:07.150Z,1016.64
2019-02-27T07:16:07.161Z,1016.59
2019-02-27T07:17:07.134Z,1016.63
2019-02-27T07:18:07.133Z,1016.64
2019-02-27T07:19:07.116Z,1016.68
2019-02-27T07:20:08.776Z,1016.61
2019-02-27T07:21:07.108Z,1016.62
2019-02-27T07:22:09.194Z,1016.63
2019-02-27T07:23:07.073Z,1016.63
2019-02-27T07:24:07.076Z,1016.63
2019-02-27T07:25:07.245Z,1016.55
2019-02-27T07:26:07.057Z,1016.52
2019-02-27T07:27:07.020Z,1016.55
2019-02-27T07:28:09.111Z,1016.56
2019-02-27T07:29:07.033Z,1016.59
2019-02-27T07:30:07.422Z,1016.52
2019-02-27T07:31:06.985Z,1016.51
2019-02-27T07:32:06.971Z,1016.47
2019-02-27T07:33:07.368Z,1016.53
2019-02-27T07:34:06.940Z,1016.51
2019-02-27T07:35:06.971Z,1016.52
2019-02-27T07:36:06.915Z,1016.55
2019-02-27T07:37:06.908Z,1016.50
2019-02-27T07:38:06.924Z,1016.48
2019-02-27T07:39:06.887Z,1016.45
2019-02-27T07:40:08.592Z,1016.42
2019-02-27T07:41:06.872Z,1016.40
2019-02-27T07:42:06.853Z,1016.40
2019-02-27T07:43:06.846Z,1016.37
2019-02-27T07:44:06.841Z,1016.44
2019-02-27T07:45:08.094Z,1016.36
2019-02-27T07:46:06.815Z,1016.34
2019-02-27T07:47:06.806Z,1016.31
2019-02-27T07:48:06.785Z,1016.30
2019-02-27T07:49:06.810Z,1016.29
2019-02-27T07:50:08.709Z,1016.32
2019-02-27T07:51:06.804Z,1016.34
2019-02-27T07:52:06.743Z,1016.31
2019-02-27T07:53:06.743Z,1016.30
2019-02-27T07:54:06.723Z,1016.40
2019-02-27T07:55:18.445Z,1016.34
2019-02-27T07:56:07.717Z,1016.30
2019-02-27T07:57:06.687Z,1016.36
2019-02-27T07:58:06.686Z,1016.38
2019-02-27T07:59:06.743Z,1016.33
2019-02-27T08:00:06.655Z,1016.30
2019-02-27T08:01:06.666Z,1016.27
2019-02-27T08:02:06.632Z,1016.33
2019-02-27T08:03:09.233Z,1016.38
2019-02-27T08:04:06.616Z,1016.40
2019-02-27T08:05:06.645Z,1016.35
2019-02-27T08:06:06.599Z,1016.36
2019-02-27T08:07:06.593Z,1016.33
2019-02-27T08:08:06.594Z,1016.31
2019-02-27T08:09:06.572Z,1016.29
2019-02-27T08:10:06.584Z,1016.33
2019-02-27T08:11:06.541Z,1016.30
2019-02-27T08:12:06.549Z,1016.28
2019-02-27T08:13:06.526Z,1016.30
2019-02-27T08:14:06.506Z,1016.32
2019-02-27T08:15:06.524Z,1016.25
2019-02-27T08:16:06.489Z,1016.28
2019-02-27T08:17:17.012Z,1016.31
2019-02-27T08:18:07.559Z,1016.25
2019-02-27T08:19:08.910Z,1016.29
2019-02-27T08:20:06.441Z,1016.34
2019-02-27T08:21:06.449Z,1016.27
2019-02-27T08:22:06.423Z,1016.33
2019-02-27T08:23:06.968Z,1016.25
2019-02-27T08:24:07.426Z,1016.17
2019-02-27T08:25:06.387Z,1016.21
2019-02-27T08:26:06.425Z,1016.18
2019-02-27T08:27:07.099Z,1016.11
2019-02-27T08:28:06.360Z,1016.17
2019-02-27T08:29:06.342Z,1016.16
2019-02-27T08:30:06.341Z,1016.15
2019-02-27T08:31:06.323Z,1016.16
2019-02-27T08:32:06.326Z,1016.07
2019-02-27T08:33:08.420Z,1016.06
2019-02-27T08:34:06.326Z,1016.08
2019-02-27T08:35:06.281Z,1016.01
2019-02-27T08:36:06.276Z,1016.03
2019-02-27T08:37:06.261Z,1015.99
2019-02-27T08:38:06.244Z,1016.00
2019-02-27T08:39:06.255Z,1016.00
2019-02-27T08:40:06.245Z,1016.02
2019-02-27T08:41:06.220Z,1016.00
2019-02-27T08:42:06.210Z,1016.02
2019-02-27T08:43:06.229Z,1016.04
2019-02-27T08:44:06.242Z,1015.98
2019-02-27T08:45:06.175Z,1016.02
2019-02-27T08:46:06.159Z,1015.99
2019-02-27T08:47:07.801Z,1015.99
2019-02-27T08:48:06.990Z,1016.02
2019-02-27T08:49:06.162Z,1015.98
2019-02-27T08:50:06.116Z,1016.00
2019-02-27T08:51:08.620Z,1015.97
2019-02-27T08:52:06.128Z,1015.98
2019-02-27T08:53:06.086Z,1015.99
2019-02-27T08:54:06.085Z,1015.94
2019-02-27T08:55:06.259Z,1015.89
2019-02-27T08:56:06.060Z,1015.94
2019-02-27T08:57:06.063Z,1015.89
2019-02-27T08:58:07.218Z,1015.90
2019-02-27T08:59:06.151Z,1015.88
2019-02-27T09:00:06.029Z,1015.89
2019-02-27T09:01:06.039Z,1015.89
2019-02-27T09:02:06.030Z,1015.84
2019-02-27T09:03:05.973Z,1015.90
2019-02-27T09:04:06.216Z,1015.92
2019-02-27T09:05:05.978Z,1015.86
2019-02-27T09:06:05.980Z,1015.81
2019-02-27T09:07:05.934Z,1015.77
2019-02-27T09:08:07.352Z,1015.76
2019-02-27T09:09:07.900Z,1015.81
2019-02-27T09:10:05.908Z,1015.74
2019-02-27T09:11:06.836Z,1015.73
2019-02-27T09:12:05.934Z,1015.75
2019-02-27T09:13:06.157Z,1015.70
2019-02-27T09:14:05.859Z,1015.69
2019-02-27T09:15:05.869Z,1015.66
2019-02-27T09:16:05.838Z,1015.66
2019-02-27T09:17:05.854Z,1015.65
2019-02-27T09:18:05.808Z,1015.66
2019-02-27T09:19:09.262Z,1015.68
2019-02-27T09:20:05.793Z,1015.64
2019-02-27T09:21:05.808Z,1015.68
2019-02-27T09:22:05.793Z,1015.66
2019-02-27T09:23:05.819Z,1015.61
2019-02-27T09:24:05.781Z,1015.64
2019-02-27T09:25:05.732Z,1015.66
2019-02-27T09:26:05.783Z,1015.67
2019-02-27T09:27:05.728Z,1015.67
2019-02-27T09:28:08.789Z,1015.64
2019-02-27T09:29:05.689Z,1015.66
2019-02-27T09:30:05.686Z,1015.64
2019-02-27T09:31:05.664Z,1015.57
2019-02-27T09:32:05.706Z,1015.59
2019-02-27T09:33:05.668Z,1015.60
2019-02-27T09:34:05.946Z,1015.63
2019-02-27T09:35:05.671Z,1015.57
2019-02-27T09:36:07.961Z,1015.60
2019-02-27T09:37:05.677Z,1015.53
2019-02-27T09:38:05.639Z,1015.50
2019-02-27T09:39:05.585Z,1015.50
2019-02-27T09:40:05.907Z,1015.44
2019-02-27T09:41:05.809Z,1015.50
2019-02-27T09:42:05.583Z,1015.42
2019-02-27T09:43:06.284Z,1015.45
2019-02-27T09:44:05.551Z,1015.50
2019-02-27T09:45:05.519Z,1015.46
2019-02-27T09:46:05.509Z,1015.38
2019-02-27T09:47:05.516Z,1015.41
2019-02-27T09:48:05.559Z,1015.42
2019-02-27T09:49:07.085Z,1015.41
2019-02-27T09:50:08.473Z,1015.39
2019-02-27T09:51:05.448Z,1015.41
2019-02-27T09:52:05.439Z,1015.38
2019-02-27T09:53:05.443Z,1015.37
2019-02-27T09:54:05.423Z,1015.36
2019-02-27T09:55:05.423Z,1015.31
2019-02-27T09:56:05.400Z,1015.35
2019-02-27T09:57:05.379Z,1015.25
2019-02-27T09:58:10.076Z,1015.26
2019-02-27T09:59:06.360Z,1015.26
2019-02-27T10:00:05.499Z,1015.29
2019-02-27T10:01:05.341Z,1015.33
2019-02-27T10:02:06.326Z,1015.25
2019-02-27T10:03:05.315Z,1015.25
2019-02-27T10:04:05.355Z,1015.27
2019-02-27T10:05:05.297Z,1015.20
2019-02-27T10:06:05.294Z,1015.21
2019-02-27T10:07:05.314Z,1015.15
2019-02-27T10:08:05.288Z,1015.15
2019-02-27T10:09:05.259Z,1015.19
2019-02-27T10:10:05.262Z,1015.13
2019-02-27T10:11:05.234Z,1015.12
2019-02-27T10:12:05.220Z,1015.11
2019-02-27T10:13:05.211Z,1015.16
2019-02-27T10:14:05.221Z,1015.10
2019-02-27T10:15:05.228Z,1015.07
2019-02-27T10:16:05.184Z,1015.04
2019-02-27T10:17:06.735Z,1015.11
2019-02-27T10:18:05.175Z,1015.04
2019-02-27T10:19:05.151Z,1015.01
2019-02-27T10:20:05.155Z,1014.98
2019-02-27T10:21:05.125Z,1014.92
2019-02-27T10:22:05.163Z,1014.96
2019-02-27T10:23:05.115Z,1014.95
2019-02-27T10:24:05.486Z,1015.00
2019-02-27T10:25:05.096Z,1014.94
2019-02-27T10:26:05.063Z,1014.96
2019-02-27T10:27:05.057Z,1014.89
2019-02-27T10:28:05.068Z,1014.89
2019-02-27T10:29:05.031Z,1014.93
2019-02-27T10:30:11.318Z,1014.95
2019-02-27T10:31:06.011Z,1014.91
2019-02-27T10:32:05.004Z,1014.91
2019-02-27T10:33:05.022Z,1014.84
2019-02-27T10:34:04.985Z,1014.85
2019-02-27T10:35:04.964Z,1014.85
2019-02-27T10:36:04.959Z,1014.81
2019-02-27T10:37:05.040Z,1014.83
2019-02-27T10:38:04.981Z,1014.76
2019-02-27T10:39:04.921Z,1014.74
2019-02-27T10:40:04.914Z,1014.76
2019-02-27T10:41:04.964Z,1014.78
2019-02-27T10:42:04.912Z,1014.78
2019-02-27T10:43:04.904Z,1014.74
2019-02-27T10:44:04.870Z,1014.72
2019-02-27T10:45:04.861Z,1014.71
2019-02-27T10:46:04.846Z,1014.65
2019-02-27T10:47:04.903Z,1014.64
2019-02-27T10:48:04.829Z,1014.67
2019-02-27T10:49:04.839Z,1014.59
2019-02-27T10:50:04.804Z,1014.57
2019-02-27T10:51:04.795Z,1014.55
2019-02-27T10:52:04.808Z,1014.50
2019-02-27T10:53:04.774Z,1014.53
2019-02-27T10:54:05.472Z,1014.49
2019-02-27T10:55:04.759Z,1014.52
2019-02-27T10:56:04.739Z,1014.55
2019-02-27T10:57:05.967Z,1014.53
2019-02-27T10:58:04.716Z,1014.54
2019-02-27T10:59:04.744Z,1014.46
2019-02-27T11:00:04.704Z,1014.49
2019-02-27T11:01:04.691Z,1014.51
2019-02-27T11:02:04.671Z,1014.43
2019-02-27T11:03:04.677Z,1014.48
2019-02-27T11:04:04.687Z,1014.41
2019-02-27T11:05:04.651Z,1014.36
2019-02-27T11:06:04.632Z,1014.35
2019-02-27T11:07:04.614Z,1014.37
2019-02-27T11:08:04.601Z,1014.32
2019-02-27T11:09:05.271Z,1014.29
2019-02-27T11:10:04.605Z,1014.33
2019-02-27T11:11:04.572Z,1014.32
2019-02-27T11:12:04.562Z,1014.31
2019-02-27T11:13:06.796Z,1014.23
2019-02-27T11:14:04.565Z,1014.22
2019-02-27T11:15:04.542Z,1014.22
2019-02-27T11:16:04.529Z,1014.21
2019-02-27T11:17:04.512Z,1014.15
2019-02-27T11:18:05.847Z,1014.11
2019-02-27T11:19:04.496Z,1014.19
2019-02-27T11:20:04.518Z,1014.18
2019-02-27T11:21:04.462Z,1014.13
2019-02-27T11:22:04.458Z,1014.04
2019-02-27T11:23:07.172Z,1014.02
2019-02-27T11:24:04.425Z,1013.99
2019-02-27T11:25:04.439Z,1013.97
2019-02-27T11:26:04.408Z,1013.96
2019-02-27T11:27:06.171Z,1013.98
2019-02-27T11:28:04.400Z,1013.91
2019-02-27T11:29:04.397Z,1013.90
2019-02-27T11:30:04.391Z,1013.93
2019-02-27T11:31:04.354Z,1013.86
2019-02-27T11:32:04.348Z,1013.89
2019-02-27T11:33:04.333Z,1013.85
2019-02-27T11:34:05.050Z,1013.83
2019-02-27T11:35:04.341Z,1013.83
2019-02-27T11:36:05.670Z,1013.89
2019-02-27T11:37:04.423Z,1013.86
2019-02-27T11:38:04.293Z,1013.86
2019-02-27T11:39:04.841Z,1013.80
2019-02-27T11:40:05.369Z,1013.74
2019-02-27T11:41:04.270Z,1013.71
2019-02-27T11:42:04.252Z,1013.74
2019-02-27T11:43:06.978Z,1013.73
2019-02-27T11:44:04.223Z,1013.74
2019-02-27T11:45:04.205Z,1013.72
2019-02-27T11:46:04.225Z,1013.66
2019-02-27T11:47:04.179Z,1013.68
2019-02-27T11:48:04.182Z,1013.65
2019-02-27T11:49:04.152Z,1013.66
2019-02-27T11:50:04.153Z,1013.63
2019-02-27T11:51:04.168Z,1013.63
2019-02-27T11:52:04.157Z,1013.60
2019-02-27T11:53:04.149Z,1013.60
2019-02-27T11:54:04.335Z,1013.57
2019-02-27T11:55:04.112Z,1013.54
2019-02-27T11:56:04.080Z,1013.58
2019-02-27T11:57:04.089Z,1013.58
2019-02-27T11:58:05.416Z,1013.61
2019-02-27T11:59:04.044Z,1013.55
2019-02-27T12:00:04.052Z,1013.52
2019-02-27T12:01:04.026Z,1013.51
2019-02-27T12:02:04.045Z,1013.47
2019-02-27T12:03:04.011Z,1013.50
2019-02-27T12:04:03.993Z,1013.52
2019-02-27T12:05:03.986Z,1013.46